Owens Cross Roads, AL (35763)

9:13 PM CDT on August 20, 2014 (GMT -0500)
Southampton | Change Station
CLOSE
Current Station
Personal Weather Station
Location: Owens Cross Roads, AL
Elevation: 615 ft
Nearby Weather Stations

Elev 615 ft 34.63 °N, 86.49 °W | Updated 1 second ago

Partly Cloudy
Partly Cloudy
80.2 °F
Feels Like 81 °F
N
2.3
Wind Variable Wind from SSE
Gusts 2.3 mph

Today
High -- | Low -- °F
--% Chance of Precip.
Yesterday
High -- | Low -- °F
Precip. -- in
6:10 AM 7:27 PM
Waning Crescent, 17% visible
Pressure 30.06 in
Visibility 10.0 miles
Clouds Few 25000 ft
Heat Index 81 °F
Dew Point 60 °F
Humidity 50%
Rainfall 0.00 in
Snow Depth Not available.
UV 0 out of 12
Pollen 8.70 out of 12
Ozone Good
PM2.5 Moderate
Flu Activity Not available.
METAR KHSV 210153Z 00000KT 10SM FEW250 28/23 A3009 RMK AO2 SLP179 T02830228

More Conditions Fewer Conditions

Pressure 30.06 in
Visibility 10.0 miles
Clouds Few 25000 ft
Heat Index 81 °F
Dew Point 60 °F
Humidity 50%
Rainfall 0.00 in
Snow Depth Not available.
UV 0 out of 12
Pollen 8.70 out of 12
Ozone Good
PM2.5 Moderate
Flu Activity Not available.
METAR KHSV 210153Z 00000KT 10SM FEW250 28/23 A3009 RMK AO2 SLP179 T02830228

More Conditions Fewer Conditions

10-Day Weather Forecast

Almanac

Astronomy

Aug. 20, 2014 Rise Set
Actual Time 6:10 AM CDT 7:27 PM CDT
Civil Twilight 5:43 AM CDT 7:53 PM CDT
Nautical Twilight 5:12 AM CDT 8:25 PM CDT
Astronomical Twilight 4:39 AM CDT 8:57 PM CDT
Moon 1:54 AM CDT (8/20) 4:07 PM CDT (8/20)
Length of Visible Light 14h 10m
Length of Day
13h 17m
Tomorrow will be 1m 58s shorter.
Waning Crescent, 17% of the Moon is Illuminated
Today
Waning Crescent
Aug 25
New
Sep 2
First Quarter
Sep 8
Full
Sep 15
Last Quarter

Today's Extremes

State Highs State Lows

Community

WunderPhotos

Upload Photos

1,745,846 photos uploaded!

WunderBlogs® & News

By Dr. Jeff Masters
Director of Meteorology, Weather Underground
By Kari Strenfel
Meteorologist, Weather Underground
By Christopher C. Burt
Weather Historian, Weather Underground
August 20, 2014
August 20, 2014
August 20, 2014

Nearby

Air Quality

  Air Quality AQ Index Pollutant
Yesterday Moderate
PM2.5
Yesterday Good
OZONE
Current Moderate
PM2.5
Current Good
OZONE
Wednesday Moderate
PM2.5
Wednesday Good
OZONE
Thursday Moderate
PM2.5
Thursday Good
OZONE

Snow Depth

Station Depth Elevation
No new snow has been reported.

Earthquake Activity

City Distance Mag. Time & Date
No recent earthquake activity has been reported nearby.
Minimum magnitude displayed is 2.5.

Coastal Water Temperatures

Place Temperature
No Stations Reporting

Nearby Weather Stations